• Join FlightAware (Why Join?)
  • Login
  • US Flag 
04:33PM EDT


 

Airport Tracker/Info


-or-


 

Live Flight TrackerFlight Track Log ✈ SWA1392 ✈ 27-Apr-2013 ✈ KPHX - KMDW

Flight Track Log - Related Links

Times and Time Zones

All times are in EDT time to prevent confusion due to time zone crossing. See the SWA1392 flight status page for this flight to view local times or setup timezone preferences in your user account.

Time Position Orientation Groundspeed Altitude Reporting Facility
EDT Latitude Longitude Course Direction KTS MPH feet Rate Location/Type
08:17PM 33.4333 -112.0333 270° West 171 197 2,000  Level Phoenix TRACON
08:18PM 33.4333 -112.1000 270° West 207 238 3,500 1,860 Climbing Phoenix TRACON
08:19PM 33.4381 -112.1589 276° West 218 251 5,700 2,160 Climbing Albuquerque Center
08:20PM 33.4981 -112.1842 341° North 285 328 8,000 2,760 Climbing Albuquerque Center
08:21PM 33.5244 -112.0975 70° East 290 334 11,400 3,420 Climbing Albuquerque Center
08:22PM 33.5442 -112.0033 76° East 292 336 15,000 3,000 Climbing Albuquerque Center
08:23PM 33.5675 -111.8836 77° East 310 357 17,600 2,340 Climbing Albuquerque Center
08:24PM 33.5911 -111.7636 77° East 368 423 19,800 2,220 Climbing Albuquerque Center
08:25PM 33.6172 -111.6389 76° East 387 445 22,200 2,340 Climbing Albuquerque Center
08:26PM 33.6414 -111.5072 78° East 405 466 24,600 2,400 Climbing Albuquerque Center
08:27PM 33.6675 -111.3764 76° East 408 470 27,100 2,040 Climbing Albuquerque Center
08:28PM 33.6978 -111.2392 75° East 415 478 28,900 1,680 Climbing Albuquerque Center
08:29PM 33.7528 -111.0864 67° East 430 495 30,600 1,620 Climbing Albuquerque Center
08:30PM 33.7997 -110.9519 67° East 438 504 32,200 1,380 Climbing Albuquerque Center
08:31PM 33.8483 -110.8169 67° East 441 507 33,500 1,260 Climbing Albuquerque Center
08:32PM 33.8964 -110.6778 67° East 448 516 34,900 1,380 Climbing Albuquerque Center
08:33PM 33.9447 -110.5408 67° East 449 517 36,400 1,200 Climbing Albuquerque Center
08:34PM 33.9986 -110.3886 67° East 448 516 37,400 900 Climbing Albuquerque Center
08:35PM 34.0478 -110.2486 67° East 453 521 38,300 780 Climbing Albuquerque Center
08:36PM 34.0972 -110.1053 67° East 461 531 39,000 300 Climbing Albuquerque Center
08:37PM 34.1467 -109.9614 67° East 462 532 39,000  Level Albuquerque Center
08:38PM 34.2006 -109.8036 68° East 458 527 39,000  Level Albuquerque Center
08:39PM 34.2475 -109.6675 67° East 459 528 39,000  Level Albuquerque Center
08:40PM 34.2936 -109.5319 68° East 458 527 39,000  Level Albuquerque Center
08:41PM 34.3469 -109.3753 68° East 454 522 39,000  Level Albuquerque Center
08:42PM 34.3925 -109.2383 68° East 456 525 39,000  Level Albuquerque Center
08:43PM 34.4433 -109.0792 69° East 455 524 39,000  Level Albuquerque Center
08:44PM 34.4808 -108.9389 72° East 456 525 39,000  Level Albuquerque Center
08:45PM 34.5192 -108.8000 71° East 456 525 39,000  Level Albuquerque Center
08:46PM 34.5647 -108.6378 71° East 456 525 39,000  Level Albuquerque Center
08:47PM 34.6031 -108.4967 72° East 458 527 39,000  Level Albuquerque Center
08:48PM 34.6436 -108.3475 72° East 457 526 39,000  Level Albuquerque Center
08:49PM 34.6833 -108.2011 72° East 457 526 39,000  Level Albuquerque Center
08:50PM 34.7222 -108.0533 72° East 459 528 39,000  Level Albuquerque Center
08:51PM 34.7664 -107.8886 72° East 459 528 39,000  Level Albuquerque Center
08:52PM 34.8003 -107.7583 72° East 460 529 39,000  Level Albuquerque Center
08:53PM 34.8383 -107.6122 72° East 456 525 39,000  Level Albuquerque Center
08:55PM 34.8772 -107.4664 72° East 454 522 39,000  Level Albuquerque Center
08:56PM 34.9150 -107.3197 73° East 456 525 39,000  Level Albuquerque Center
08:57PM 34.9619 -107.1411 72° East 455 524 39,000  Level Albuquerque Center
08:58PM 34.9975 -107.0025 73° East 450 518 39,000  Level Albuquerque Center
08:59PM 35.0322 -106.8639 73° East 447 514 39,000  Level Albuquerque Center
09:00PM 35.0847 -106.7092 67° East 445 512 39,000  Level Albuquerque Center
09:01PM 35.1367 -106.5750 65° Northeast 454 522 39,000  Level Albuquerque Center
09:02PM 35.1811 -106.4483 67° East 453 521 39,000  Level Albuquerque Center
09:03PM 35.2417 -106.2839 66° East 446 513 39,000  Level Albuquerque Center
09:04PM 35.2919 -106.1431 66° East 438 504 39,000  Level Albuquerque Center
09:05PM 35.3444 -106.0036 65° Northeast 444 511 39,000  Level Albuquerque Center
09:06PM 35.3978 -105.8622 65° Northeast 453 521 39,000  Level Albuquerque Center
09:07PM 35.4492 -105.7219 66° East 450 518 39,000  Level Albuquerque Center
09:08PM 35.4994 -105.5800 66° East 450 518 39,000  Level Albuquerque Center
09:09PM 35.5486 -105.4400 67° East 445 512 39,000  Level Albuquerque Center
09:10PM 35.5986 -105.2978 67° East 447 514 39,000  Level Albuquerque Center
09:11PM 35.6489 -105.1556 66° East 449 517 39,000  Level Albuquerque Center
09:12PM 35.7158 -105.0258 58° Northeast 442 509 39,000  Level Albuquerque Center
09:13PM 35.7867 -104.8975 56° Northeast 443 510 39,000  Level Albuquerque Center
09:14PM 35.8558 -104.7700 56° Northeast 444 511 39,000  Level Albuquerque Center
09:15PM 35.9267 -104.6394 56° Northeast 447 514 39,000  Level Albuquerque Center
09:16PM 35.9944 -104.5122 57° Northeast 443 510 39,000  Level Albuquerque Center
09:17PM 36.0625 -104.3864 56° Northeast 437 503 39,000  Level Albuquerque Center
09:18PM 36.1306 -104.2592 56° Northeast 438 504 39,000  Level Albuquerque Center
09:19PM 36.1997 -104.1319 56° Northeast 441 507 39,000  Level Albuquerque Center
09:20PM 36.2675 -104.0053 56° Northeast 437 503 39,000  Level Albuquerque Center
09:21PM 36.3350 -103.8781 57° Northeast 436 502 39,000  Level Albuquerque Center
09:22PM 36.4028 -103.7489 57° Northeast 441 507 39,000  Level Albuquerque Center
09:23PM 36.4714 -103.6197 57° Northeast 443 510 39,000  Level Albuquerque Center
09:24PM 36.5386 -103.4903 57° Northeast 442 509 39,000  Level Albuquerque Center
09:25PM 36.6061 -103.3592 57° Northeast 445 512 39,000  Level Albuquerque Center
09:26PM 36.6761 -103.2228 57° Northeast 448 516 39,000  Level Albuquerque Center
09:27PM 36.7514 -103.0758 57° Northeast 450 518 39,000  Level Albuquerque Center
09:28PM 36.8161 -102.9514 57° Northeast 450 518 39,000  Level Albuquerque Center
09:29PM 36.8800 -102.8261 57° Northeast 449 517 39,000  Level Albuquerque Center
09:30PM 36.9569 -102.6775 57° Northeast 454 522 39,000  Level Albuquerque Center
09:31PM 37.0208 -102.5525 57° Northeast 449 517 39,000  Level Albuquerque Center
09:32PM 37.0886 -102.4156 58° Northeast 447 514 39,000  Level Albuquerque Center
09:33PM 37.1572 -102.2806 57° Northeast 446 513 39,000  Level Albuquerque Center
09:34PM 37.2258 -102.1431 58° Northeast 446 513 39,000  Level Albuquerque Center
09:35PM 37.2894 -102.0178 57° Northeast 446 513 39,000  Level Albuquerque Center
09:36PM 37.3514 -101.8911 58° Northeast 444 511 39,000  Level Albuquerque Center
09:37PM 37.4008 -101.7842 60° Northeast 443 510 39,000  Level Kansas City Center
09:38PM 37.4639 -101.6583 58° Northeast 444 511 39,000  Level Kansas City Center
09:39PM 37.5258 -101.5322 58° Northeast 443 510 39,000  Level Kansas City Center
09:40PM 37.5978 -101.3869 58° Northeast 439 505 39,000  Level Kansas City Center
09:41PM 37.6592 -101.2617 58° Northeast 437 503 39,000  Level Kansas City Center
09:42PM 37.7128 -101.1356 62° Northeast 437 503 39,000  Level Kansas City Center
09:43PM 37.7664 -100.9697 68° East 439 505 39,000  Level Kansas City Center
09:44PM 37.8122 -100.8294 67° East 441 507 39,000  Level Kansas City Center
09:45PM 37.8558 -100.6908 68° East 441 507 39,000  Level Kansas City Center
09:46PM 37.9000 -100.5514 68° East 441 507 39,000  Level Kansas City Center
09:47PM 37.9500 -100.3889 69° East 443 510 39,000  Level Kansas City Center
09:48PM 37.9939 -100.2511 68° East 442 509 39,000  Level Kansas City Center
09:49PM 38.0361 -100.1131 69° East 439 505 39,000  Level Kansas City Center
09:50PM 38.0853 -99.9511 69° East 440 506 39,000  Level Kansas City Center
09:51PM 38.1289 -99.8144 68° East 438 504 39,000  Level Kansas City Center
09:52PM 38.1714 -99.6778 68° East 436 502 39,000  Level Kansas City Center
09:53PM 38.2183 -99.5161 70° East 436 502 39,000  Level Kansas City Center
09:54PM 38.2586 -99.3839 69° East 439 505 39,000  Level Kansas City Center
09:55PM 38.3025 -99.2389 69° East 440 506 39,000  Level Kansas City Center
09:56PM 38.3467 -99.0936 69° East 440 506 39,000  Level Kansas City Center
09:57PM 38.3908 -98.9464 69° East 441 507 39,000  Level Kansas City Center
09:58PM 38.4358 -98.7992 69° East 445 512 39,000  Level Kansas City Center
09:59PM 38.4794 -98.6522 69° East 442 509 39,000  Level Kansas City Center
10:00PM 38.5236 -98.5064 69° East 438 504 39,000  Level Kansas City Center
10:01PM 38.5658 -98.3581 70° East 442 509 39,000  Level Kansas City Center
10:02PM 38.6086 -98.2114 69° East 441 507 39,000  Level Kansas City Center
10:03PM 38.6522 -98.0631 69° East 442 509 39,000  Level Kansas City Center
10:04PM 38.6947 -97.9150 70° East 442 509 39,000  Level Kansas City Center
10:05PM 38.7428 -97.7483 70° East 443 510 39,000  Level Kansas City Center
10:06PM 38.7831 -97.6072 70° East 441 507 39,000  Level Kansas City Center
10:07PM 38.8214 -97.4703 70° East 439 505 39,000  Level Kansas City Center
10:08PM 38.8628 -97.3228 70° East 439 505 39,000  Level Kansas City Center
10:09PM 38.9042 -97.1758 70° East 437 503 39,000  Level Kansas City Center
10:10PM 38.9447 -97.0281 71° East 438 504 39,000  Level Kansas City Center
10:11PM 38.9931 -96.8542 70° East 440 506 39,000  Level Kansas City Center
10:12PM 39.0331 -96.7117 70° East 441 507 39,000  Level Kansas City Center
10:13PM 39.0708 -96.5692 71° East 441 507 39,000  Level Kansas City Center
10:14PM 39.1161 -96.4017 71° East 442 509 39,000  Level Kansas City Center
10:15PM 39.1544 -96.2583 71° East 441 507 39,000  Level Kansas City Center
10:16PM 39.1931 -96.1144 71° East 444 511 39,000  Level Kansas City Center
10:17PM 39.2322 -95.9694 71° East 445 512 39,000  Level Kansas City Center
10:18PM 39.2772 -95.8000 71° East 446 513 39,000  Level Kansas City Center
10:19PM 39.3150 -95.6539 71° East 445 512 39,000  Level Kansas City Center
10:20PM 39.3533 -95.5094 71° East 443 510 39,000  Level Kansas City Center
10:21PM 39.3950 -95.3486 71° East 439 505 39,000  Level Kansas City Center
10:22PM 39.4369 -95.1878 71° East 438 504 39,000  Level Kansas City Center
10:23PM 39.4722 -95.0489 72° East 440 506 39,000  Level Kansas City Center
10:24PM 39.5094 -94.9042 72° East 441 507 39,000  Level Kansas City Center
10:25PM 39.5536 -94.7342 71° East 444 511 39,000  Level Kansas City Center
10:26PM 39.5906 -94.5872 72° East 448 516 39,000  Level Kansas City Center
10:27PM 39.6272 -94.4406 72° East 447 514 39,000  Level Kansas City Center
10:28PM 39.6636 -94.2925 72° East 448 516 39,000  Level Kansas City Center
10:29PM 39.7058 -94.1206 72° East 448 516 39,000  Level Kansas City Center
10:30PM 39.7431 -93.9736 72° East 447 514 39,000  Level Kansas City Center
10:31PM 39.7786 -93.8272 72° East 444 511 39,000  Level Kansas City Center
10:33PM 39.8172 -93.6664 73° East 448 516 39,000  Level Kansas City Center
10:34PM 39.8544 -93.5150 72° East 444 511 39,000  Level Kansas City Center
10:35PM 39.8894 -93.3622 73° East 443 510 39,000  Level Kansas City Center
10:36PM 39.9283 -93.2117 71° East 442 509 39,000  Level Kansas City Center
10:37PM 39.9631 -93.0592 73° East 443 510 39,000  Level Kansas City Center
10:38PM 39.9983 -92.9067 73° East 444 511 39,000  Level Kansas City Center
10:39PM 40.0331 -92.7544 73° East 444 511 39,000  Level Kansas City Center
10:40PM 40.0747 -92.5764 73° East 443 510 39,000  Level Kansas City Center
10:41PM 40.1089 -92.4283 73° East 444 511 39,000  Level Kansas City Center
10:42PM 40.1472 -92.2697 72° East 449 517 39,000  Level Kansas City Center
10:43PM 40.1811 -92.1144 74° East 451 519 39,000  Level Kansas City Center
10:44PM 40.2161 -91.9592 74° East 450 518 39,000  Level Kansas City Center
10:45PM 40.2500 -91.8039 74° East 450 518 39,000  Level Kansas City Center
10:46PM 40.2856 -91.6456 74° East 455 524 39,000 -900 Level Kansas City Center
10:47PM 40.3208 -91.4903 73° East 452 520 37,300 -2,160 Descending Kansas City Center
10:48PM 40.3531 -91.3372 75° East 443 510 34,700 -2,520 Descending Kansas City Center
10:49PM 40.3856 -91.1906 74° East 435 501 32,600 -1,980 Descending Chicago Center
10:50PM 40.4183 -91.0467 73° East 416 479 31,000 -840 Descending Chicago Center
10:51PM 40.4506 -90.9031 74° East 411 473 31,000  Level Chicago Center
10:52PM 40.5069 -90.7736 60° Northeast 406 467 31,000 -540 Level Chicago Center
10:53PM 40.5644 -90.6439 60° Northeast 411 473 30,000 -1,020 Descending Chicago Center
10:54PM 40.6192 -90.5158 61° Northeast 404 465 29,000 -1,020 Descending Chicago Center
10:55PM 40.6753 -90.3886 60° Northeast 403 464 28,000 -1,020 Descending Chicago Center
10:56PM 40.7311 -90.2622 60° Northeast 399 459 27,000 -1,020 Descending Chicago Center
10:57PM 40.7875 -90.1342 60° Northeast 389 448 26,000 -1,020 Descending Chicago Center
10:58PM 40.8386 -90.0131 61° Northeast 382 440 25,000 -1,020 Descending Chicago Center
10:59PM 40.8875 -89.8919 62° Northeast 376 433 24,000 -1,020 Descending Chicago Center
11:00PM 40.9403 -89.7739 59° Northeast 373 429 23,000 -1,020 Descending Chicago Center
11:01PM 40.9903 -89.6572 60° Northeast 367 422 22,000 -1,080 Descending Chicago Center
11:02PM 41.0411 -89.5367 61° Northeast 358 412 20,900 -1,080 Descending Chicago Center
11:03PM 41.0889 -89.4244 61° Northeast 350 403 19,900 -1,020 Descending Chicago Center
11:04PM 41.1361 -89.3136 60° Northeast 345 397 18,900 -1,080 Descending Chicago Center
11:05PM 41.1867 -89.1922 61° Northeast 335 386 17,800 -1,020 Descending Chicago Center
11:06PM 41.2300 -89.0864 61° Northeast 327 376 16,900 -960 Descending Chicago Center
11:07PM 41.2742 -88.9808 61° Northeast 327 376 15,900 -1,020 Descending Chicago Center
11:08PM 41.3167 -88.8764 62° Northeast 324 373 14,900 -1,020 Descending Chicago Center
11:09PM 41.3594 -88.7733 61° Northeast 320 368 13,900 -1,260 Descending Chicago Center
11:10PM 41.4022 -88.6717 61° Northeast 317 365 12,400 -1,560 Descending Chicago Center
11:11PM 41.4431 -88.5700 62° Northeast 314 361 10,800 -1,200 Descending Chicago Center
11:12PM 41.4767 -88.4681 66° East 300 345 10,000 -540 Descending Chicago Center
11:13PM 41.5094 -88.3644 67° East 301 346 9,800 -660 Descending Chicago Center
11:14PM 41.5403 -88.2675 67° East 287 330 8,700 -1,200 Descending Chicago Center
11:15PM 41.5714 -88.1717 67° East 281 323 7,500 -1,200 Descending Chicago Center
11:16PM 41.6014 -88.0786 67° East 272 313 6,300 -1,260 Descending Chicago Center
11:17PM 41.6297 -87.9894 67° East 264 304 5,000 -1,080 Descending Chicago Center
11:18PM 41.6600 -87.9097 63° Northeast 254 292 4,200 -1,140 Descending Chicago Center
11:19PM 41.7167 -87.8500 38° Northeast 207 238 2,800 -1,260 Descending Chicago TRACON
11:20PM 41.7500 -87.8000 48° Northeast 158 182 1,600 -960 Descending Chicago TRACON
11:21PM 41.7667 -87.7667 56° Northeast 132 152 900 -780 Descending Chicago TRACON
11:23PM 41.7833 -87.7500 North  Level FlightAware Approximate